sensor_id;sensor_type;location;lat;lon;timestamp;P1;durP1;ratioP1;P2;durP2;ratioP2
20122;SDS011;10222;50.848;4.336;2022-11-20T00:01:59;23.80;;;11.50;;
20122;SDS011;10222;50.848;4.336;2022-11-20T00:04:25;28.17;;;12.77;;
20122;SDS011;10222;50.848;4.336;2022-11-20T00:06:51;20.63;;;11.20;;
20122;SDS011;10222;50.848;4.336;2022-11-20T00:09:17;23.53;;;11.97;;
20122;SDS011;10222;50.848;4.336;2022-11-20T00:11:43;21.70;;;11.03;;
20122;SDS011;10222;50.848;4.336;2022-11-20T00:14:10;26.87;;;10.70;;
20122;SDS011;10222;50.848;4.336;2022-11-20T00:16:36;30.10;;;10.70;;
20122;SDS011;10222;50.848;4.336;2022-11-20T00:19:02;22.83;;;10.83;;
20122;SDS011;10222;50.848;4.336;2022-11-20T00:21:29;24.63;;;10.93;;
20122;SDS011;10222;50.848;4.336;2022-11-20T00:23:55;19.00;;;10.63;;
20122;SDS011;10222;50.848;4.336;2022-11-20T00:26:23;26.63;;;13.53;;
20122;SDS011;10222;50.848;4.336;2022-11-20T00:28:49;22.40;;;10.70;;
20122;SDS011;10222;50.848;4.336;2022-11-20T00:31:16;21.80;;;10.80;;
20122;SDS011;10222;50.848;4.336;2022-11-20T00:33:43;25.53;;;11.50;;
20122;SDS011;10222;50.848;4.336;2022-11-20T00:36:13;19.77;;;10.63;;
20122;SDS011;10222;50.848;4.336;2022-11-20T00:38:40;26.27;;;9.43;;
20122;SDS011;10222;50.848;4.336;2022-11-20T00:41:08;19.83;;;9.73;;
20122;SDS011;10222;50.848;4.336;2022-11-20T00:43:34;21.20;;;9.77;;
20122;SDS011;10222;50.848;4.336;2022-11-20T00:46:01;24.10;;;10.90;;
20122;SDS011;10222;50.848;4.336;2022-11-20T00:48:28;22.00;;;9.67;;
20122;SDS011;10222;50.848;4.336;2022-11-20T00:50:54;20.83;;;10.20;;
20122;SDS011;10222;50.848;4.336;2022-11-20T00:53:20;21.80;;;10.73;;
20122;SDS011;10222;50.848;4.336;2022-11-20T00:55:56;20.23;;;9.60;;
20122;SDS011;10222;50.848;4.336;2022-11-20T00:58:22;25.03;;;11.03;;
20122;SDS011;10222;50.848;4.336;2022-11-20T01:00:51;19.70;;;9.80;;
20122;SDS011;10222;50.848;4.336;2022-11-20T01:03:17;23.73;;;10.83;;
20122;SDS011;10222;50.848;4.336;2022-11-20T01:05:43;22.47;;;10.47;;
20122;SDS011;10222;50.848;4.336;2022-11-20T01:08:09;21.07;;;10.07;;
20122;SDS011;10222;50.848;4.336;2022-11-20T01:10:36;22.87;;;10.77;;
20122;SDS011;10222;50.848;4.336;2022-11-20T01:13:02;22.30;;;10.40;;
20122;SDS011;10222;50.848;4.336;2022-11-20T01:15:48;22.37;;;9.53;;
20122;SDS011;10222;50.848;4.336;2022-11-20T01:18:14;24.77;;;10.30;;
20122;SDS011;10222;50.848;4.336;2022-11-20T01:20:40;22.37;;;10.03;;
20122;SDS011;10222;50.848;4.336;2022-11-20T01:23:06;19.33;;;10.40;;
20122;SDS011;10222;50.848;4.336;2022-11-20T01:25:32;21.43;;;10.67;;
20122;SDS011;10222;50.848;4.336;2022-11-20T01:27:59;19.07;;;10.10;;
20122;SDS011;10222;50.848;4.336;2022-11-20T01:30:25;23.80;;;10.80;;
20122;SDS011;10222;50.848;4.336;2022-11-20T01:32:51;16.60;;;9.03;;
20122;SDS011;10222;50.848;4.336;2022-11-20T01:35:17;21.80;;;10.10;;
20122;SDS011;10222;50.848;4.336;2022-11-20T01:37:44;22.00;;;11.10;;
20122;SDS011;10222;50.848;4.336;2022-11-20T01:40:10;22.00;;;10.53;;
20122;SDS011;10222;50.848;4.336;2022-11-20T01:42:37;25.70;;;10.80;;
20122;SDS011;10222;50.848;4.336;2022-11-20T01:46:33;21.10;;;10.50;;
20122;SDS011;10222;50.848;4.336;2022-11-20T01:48:30;25.00;;;10.87;;
20122;SDS011;10222;50.848;4.336;2022-11-20T01:50:58;20.00;;;10.30;;
20122;SDS011;10222;50.848;4.336;2022-11-20T01:53:30;20.83;;;9.27;;
20122;SDS011;10222;50.848;4.336;2022-11-20T01:55:58;22.67;;;9.67;;
20122;SDS011;10222;50.848;4.336;2022-11-20T01:58:28;24.43;;;10.23;;
20122;SDS011;10222;50.848;4.336;2022-11-20T02:00:54;23.10;;;11.70;;
20122;SDS011;10222;50.848;4.336;2022-11-20T02:03:20;26.77;;;11.40;;
20122;SDS011;10222;50.848;4.336;2022-11-20T02:08:21;22.63;;;9.87;;
20122;SDS011;10222;50.848;4.336;2022-11-20T02:10:48;24.73;;;10.93;;
20122;SDS011;10222;50.848;4.336;2022-11-20T02:13:15;24.57;;;10.57;;
20122;SDS011;10222;50.848;4.336;2022-11-20T02:16:01;28.47;;;10.97;;
20122;SDS011;10222;50.848;4.336;2022-11-20T02:18:27;25.53;;;11.40;;
20122;SDS011;10222;50.848;4.336;2022-11-20T02:20:58;25.20;;;11.40;;
20122;SDS011;10222;50.848;4.336;2022-11-20T02:23:33;24.00;;;10.03;;
20122;SDS011;10222;50.848;4.336;2022-11-20T02:26:02;29.00;;;10.20;;
20122;SDS011;10222;50.848;4.336;2022-11-20T02:28:31;24.47;;;10.53;;
20122;SDS011;10222;50.848;4.336;2022-11-20T02:30:59;24.03;;;9.77;;
20122;SDS011;10222;50.848;4.336;2022-11-20T02:33:26;20.40;;;10.17;;
20122;SDS011;10222;50.848;4.336;2022-11-20T02:35:52;25.40;;;11.60;;
20122;SDS011;10222;50.848;4.336;2022-11-20T02:38:19;24.87;;;10.83;;
20122;SDS011;10222;50.848;4.336;2022-11-20T02:40:45;24.27;;;11.47;;
20122;SDS011;10222;50.848;4.336;2022-11-20T02:43:11;21.13;;;9.13;;
20122;SDS011;10222;50.848;4.336;2022-11-20T02:45:38;30.17;;;11.57;;
20122;SDS011;10222;50.848;4.336;2022-11-20T02:48:05;24.67;;;9.67;;
20122;SDS011;10222;50.848;4.336;2022-11-20T02:50:31;30.67;;;12.17;;
20122;SDS011;10222;50.848;4.336;2022-11-20T02:52:57;26.63;;;9.80;;
20122;SDS011;10222;50.848;4.336;2022-11-20T02:55:23;26.17;;;10.20;;
20122;SDS011;10222;50.848;4.336;2022-11-20T02:57:49;21.37;;;9.67;;
20122;SDS011;10222;50.848;4.336;2022-11-20T03:00:15;24.40;;;9.77;;
20122;SDS011;10222;50.848;4.336;2022-11-20T03:02:42;23.57;;;10.20;;
20122;SDS011;10222;50.848;4.336;2022-11-20T03:05:09;23.27;;;10.07;;
20122;SDS011;10222;50.848;4.336;2022-11-20T03:07:36;24.27;;;10.20;;
20122;SDS011;10222;50.848;4.336;2022-11-20T03:10:03;25.87;;;10.20;;
20122;SDS011;10222;50.848;4.336;2022-11-20T03:12:30;18.17;;;8.37;;
20122;SDS011;10222;50.848;4.336;2022-11-20T03:14:56;18.80;;;8.43;;
20122;SDS011;10222;50.848;4.336;2022-11-20T03:17:23;22.30;;;9.97;;
20122;SDS011;10222;50.848;4.336;2022-11-20T03:19:49;21.67;;;8.43;;
20122;SDS011;10222;50.848;4.336;2022-11-20T03:22:16;20.97;;;9.10;;
20122;SDS011;10222;50.848;4.336;2022-11-20T03:24:42;18.73;;;9.47;;
20122;SDS011;10222;50.848;4.336;2022-11-20T03:27:08;21.57;;;9.37;;
20122;SDS011;10222;50.848;4.336;2022-11-20T03:29:34;22.70;;;8.97;;
20122;SDS011;10222;50.848;4.336;2022-11-20T03:32:00;22.53;;;10.60;;
20122;SDS011;10222;50.848;4.336;2022-11-20T03:34:26;27.30;;;9.13;;
20122;SDS011;10222;50.848;4.336;2022-11-20T03:36:53;21.10;;;9.73;;
20122;SDS011;10222;50.848;4.336;2022-11-20T03:39:20;24.27;;;11.07;;
20122;SDS011;10222;50.848;4.336;2022-11-20T03:41:46;20.93;;;9.07;;
20122;SDS011;10222;50.848;4.336;2022-11-20T03:44:12;19.87;;;9.07;;
20122;SDS011;10222;50.848;4.336;2022-11-20T03:46:38;21.23;;;8.40;;
20122;SDS011;10222;50.848;4.336;2022-11-20T03:49:04;20.07;;;8.60;;
20122;SDS011;10222;50.848;4.336;2022-11-20T03:51:31;17.43;;;8.33;;
20122;SDS011;10222;50.848;4.336;2022-11-20T03:53:59;24.60;;;8.83;;
20122;SDS011;10222;50.848;4.336;2022-11-20T03:56:28;24.53;;;9.67;;
20122;SDS011;10222;50.848;4.336;2022-11-20T03:58:54;27.13;;;10.50;;
20122;SDS011;10222;50.848;4.336;2022-11-20T04:01:21;21.87;;;9.57;;
20122;SDS011;10222;50.848;4.336;2022-11-20T04:03:47;27.20;;;10.70;;
20122;SDS011;10222;50.848;4.336;2022-11-20T04:06:18;22.83;;;9.20;;
20122;SDS011;10222;50.848;4.336;2022-11-20T04:08:44;21.30;;;8.40;;
20122;SDS011;10222;50.848;4.336;2022-11-20T04:11:17;23.10;;;9.13;;
20122;SDS011;10222;50.848;4.336;2022-11-20T04:13:47;23.57;;;9.97;;
20122;SDS011;10222;50.848;4.336;2022-11-20T04:16:14;25.33;;;10.53;;
20122;SDS011;10222;50.848;4.336;2022-11-20T04:18:41;24.33;;;9.87;;
20122;SDS011;10222;50.848;4.336;2022-11-20T04:21:07;27.73;;;11.50;;
20122;SDS011;10222;50.848;4.336;2022-11-20T04:23:33;24.17;;;9.97;;
20122;SDS011;10222;50.848;4.336;2022-11-20T04:26:07;23.17;;;9.33;;
20122;SDS011;10222;50.848;4.336;2022-11-20T04:28:34;26.33;;;10.07;;
20122;SDS011;10222;50.848;4.336;2022-11-20T04:31:04;25.37;;;11.03;;
20122;SDS011;10222;50.848;4.336;2022-11-20T04:33:30;21.13;;;9.23;;
20122;SDS011;10222;50.848;4.336;2022-11-20T04:35:59;24.83;;;10.67;;
20122;SDS011;10222;50.848;4.336;2022-11-20T04:38:26;27.37;;;11.73;;
20122;SDS011;10222;50.848;4.336;2022-11-20T04:40:55;28.27;;;11.17;;
20122;SDS011;10222;50.848;4.336;2022-11-20T04:43:21;26.37;;;10.87;;
20122;SDS011;10222;50.848;4.336;2022-11-20T04:45:58;27.83;;;11.80;;
20122;SDS011;10222;50.848;4.336;2022-11-20T04:48:25;19.87;;;9.10;;
20122;SDS011;10222;50.848;4.336;2022-11-20T04:50:51;24.67;;;10.03;;
20122;SDS011;10222;50.848;4.336;2022-11-20T04:53:17;26.57;;;10.40;;
20122;SDS011;10222;50.848;4.336;2022-11-20T04:55:45;23.03;;;9.10;;
20122;SDS011;10222;50.848;4.336;2022-11-20T04:58:13;28.53;;;9.40;;
20122;SDS011;10222;50.848;4.336;2022-11-20T05:00:40;31.30;;;11.40;;
20122;SDS011;10222;50.848;4.336;2022-11-20T05:03:06;34.30;;;12.33;;
20122;SDS011;10222;50.848;4.336;2022-11-20T05:05:35;30.10;;;11.73;;
20122;SDS011;10222;50.848;4.336;2022-11-20T05:08:02;34.00;;;12.07;;
20122;SDS011;10222;50.848;4.336;2022-11-20T05:10:28;30.53;;;10.70;;
20122;SDS011;10222;50.848;4.336;2022-11-20T05:12:54;27.17;;;11.30;;
20122;SDS011;10222;50.848;4.336;2022-11-20T05:15:20;23.83;;;10.30;;
20122;SDS011;10222;50.848;4.336;2022-11-20T05:17:47;30.13;;;10.57;;
20122;SDS011;10222;50.848;4.336;2022-11-20T05:20:13;33.53;;;12.43;;
20122;SDS011;10222;50.848;4.336;2022-11-20T05:22:39;30.03;;;11.60;;
20122;SDS011;10222;50.848;4.336;2022-11-20T05:25:05;29.00;;;11.27;;
20122;SDS011;10222;50.848;4.336;2022-11-20T05:27:32;31.73;;;12.13;;
20122;SDS011;10222;50.848;4.336;2022-11-20T05:29:58;31.10;;;11.77;;
20122;SDS011;10222;50.848;4.336;2022-11-20T05:32:24;29.83;;;9.93;;
20122;SDS011;10222;50.848;4.336;2022-11-20T05:34:51;28.30;;;11.87;;
20122;SDS011;10222;50.848;4.336;2022-11-20T05:37:18;32.63;;;11.00;;
20122;SDS011;10222;50.848;4.336;2022-11-20T05:39:44;25.33;;;9.47;;
20122;SDS011;10222;50.848;4.336;2022-11-20T05:42:10;30.60;;;10.93;;
20122;SDS011;10222;50.848;4.336;2022-11-20T05:44:54;25.47;;;10.50;;
20122;SDS011;10222;50.848;4.336;2022-11-20T05:47:20;33.90;;;12.40;;
20122;SDS011;10222;50.848;4.336;2022-11-20T05:49:46;30.43;;;11.70;;
20122;SDS011;10222;50.848;4.336;2022-11-20T05:52:12;34.13;;;11.77;;
20122;SDS011;10222;50.848;4.336;2022-11-20T05:54:39;30.03;;;11.17;;
20122;SDS011;10222;50.848;4.336;2022-11-20T05:57:05;24.60;;;10.53;;
20122;SDS011;10222;50.848;4.336;2022-11-20T05:59:31;38.73;;;12.93;;
20122;SDS011;10222;50.848;4.336;2022-11-20T06:01:57;37.00;;;12.13;;
20122;SDS011;10222;50.848;4.336;2022-11-20T06:04:24;27.67;;;9.93;;
20122;SDS011;10222;50.848;4.336;2022-11-20T06:06:50;25.53;;;10.20;;
20122;SDS011;10222;50.848;4.336;2022-11-20T06:09:16;30.50;;;10.63;;
20122;SDS011;10222;50.848;4.336;2022-11-20T06:11:42;31.20;;;11.27;;
20122;SDS011;10222;50.848;4.336;2022-11-20T06:14:08;35.97;;;10.57;;
20122;SDS011;10222;50.848;4.336;2022-11-20T06:16:34;28.93;;;11.00;;
20122;SDS011;10222;50.848;4.336;2022-11-20T06:19:01;26.93;;;10.37;;
20122;SDS011;10222;50.848;4.336;2022-11-20T06:21:27;35.13;;;11.40;;
20122;SDS011;10222;50.848;4.336;2022-11-20T06:23:53;29.17;;;10.73;;
20122;SDS011;10222;50.848;4.336;2022-11-20T06:26:20;29.37;;;10.20;;
20122;SDS011;10222;50.848;4.336;2022-11-20T06:28:47;25.67;;;10.70;;
20122;SDS011;10222;50.848;4.336;2022-11-20T06:31:14;24.57;;;9.70;;
20122;SDS011;10222;50.848;4.336;2022-11-20T06:33:42;32.67;;;11.93;;
20122;SDS011;10222;50.848;4.336;2022-11-20T06:36:09;32.37;;;11.00;;
20122;SDS011;10222;50.848;4.336;2022-11-20T06:38:35;31.57;;;10.10;;
20122;SDS011;10222;50.848;4.336;2022-11-20T06:41:02;27.30;;;10.33;;
20122;SDS011;10222;50.848;4.336;2022-11-20T06:43:29;35.17;;;11.47;;
20122;SDS011;10222;50.848;4.336;2022-11-20T06:45:55;26.10;;;10.27;;
20122;SDS011;10222;50.848;4.336;2022-11-20T06:48:22;35.10;;;11.47;;
20122;SDS011;10222;50.848;4.336;2022-11-20T06:50:48;29.63;;;10.83;;
20122;SDS011;10222;50.848;4.336;2022-11-20T06:53:14;30.33;;;10.13;;
20122;SDS011;10222;50.848;4.336;2022-11-20T06:55:44;33.57;;;13.33;;
20122;SDS011;10222;50.848;4.336;2022-11-20T06:58:11;26.60;;;11.70;;
20122;SDS011;10222;50.848;4.336;2022-11-20T07:00:38;32.73;;;10.50;;
20122;SDS011;10222;50.848;4.336;2022-11-20T07:03:04;28.53;;;10.57;;
20122;SDS011;10222;50.848;4.336;2022-11-20T07:05:30;26.57;;;10.43;;
20122;SDS011;10222;50.848;4.336;2022-11-20T07:07:56;26.20;;;10.80;;
20122;SDS011;10222;50.848;4.336;2022-11-20T07:10:23;26.77;;;9.10;;
20122;SDS011;10222;50.848;4.336;2022-11-20T07:12:49;32.10;;;11.07;;
20122;SDS011;10222;50.848;4.336;2022-11-20T07:15:16;32.13;;;11.47;;
20122;SDS011;10222;50.848;4.336;2022-11-20T07:17:42;30.00;;;11.53;;
20122;SDS011;10222;50.848;4.336;2022-11-20T07:20:08;30.27;;;11.03;;
20122;SDS011;10222;50.848;4.336;2022-11-20T07:22:34;31.47;;;10.43;;
20122;SDS011;10222;50.848;4.336;2022-11-20T07:25:00;24.13;;;10.10;;
20122;SDS011;10222;50.848;4.336;2022-11-20T07:27:27;25.67;;;10.23;;
20122;SDS011;10222;50.848;4.336;2022-11-20T07:29:53;27.70;;;9.97;;
20122;SDS011;10222;50.848;4.336;2022-11-20T07:32:19;26.97;;;11.03;;
20122;SDS011;10222;50.848;4.336;2022-11-20T07:34:45;27.00;;;10.00;;
20122;SDS011;10222;50.848;4.336;2022-11-20T07:37:11;21.30;;;8.77;;
20122;SDS011;10222;50.848;4.336;2022-11-20T07:39:39;27.83;;;9.40;;
20122;SDS011;10222;50.848;4.336;2022-11-20T07:42:06;27.23;;;10.30;;
20122;SDS011;10222;50.848;4.336;2022-11-20T07:44:32;18.27;;;7.67;;
20122;SDS011;10222;50.848;4.336;2022-11-20T07:46:58;22.87;;;9.03;;
20122;SDS011;10222;50.848;4.336;2022-11-20T07:49:24;20.17;;;9.37;;
20122;SDS011;10222;50.848;4.336;2022-11-20T07:51:51;26.27;;;10.23;;
20122;SDS011;10222;50.848;4.336;2022-11-20T07:54:21;26.37;;;8.43;;
20122;SDS011;10222;50.848;4.336;2022-11-20T07:56:47;29.57;;;9.23;;
20122;SDS011;10222;50.848;4.336;2022-11-20T07:59:13;29.23;;;9.37;;
20122;SDS011;10222;50.848;4.336;2022-11-20T08:01:40;27.63;;;9.40;;
20122;SDS011;10222;50.848;4.336;2022-11-20T08:04:06;25.40;;;8.07;;
20122;SDS011;10222;50.848;4.336;2022-11-20T08:06:32;30.90;;;9.17;;
20122;SDS011;10222;50.848;4.336;2022-11-20T08:08:58;23.70;;;8.83;;
20122;SDS011;10222;50.848;4.336;2022-11-20T08:11:24;28.77;;;9.93;;
20122;SDS011;10222;50.848;4.336;2022-11-20T08:14:09;24.63;;;9.07;;
20122;SDS011;10222;50.848;4.336;2022-11-20T08:16:38;25.43;;;9.13;;
20122;SDS011;10222;50.848;4.336;2022-11-20T08:19:05;22.60;;;8.77;;
20122;SDS011;10222;50.848;4.336;2022-11-20T08:21:32;17.07;;;7.70;;
20122;SDS011;10222;50.848;4.336;2022-11-20T08:23:58;26.90;;;9.30;;
20122;SDS011;10222;50.848;4.336;2022-11-20T08:26:24;26.17;;;9.10;;
20122;SDS011;10222;50.848;4.336;2022-11-20T08:28:54;20.17;;;8.23;;
20122;SDS011;10222;50.848;4.336;2022-11-20T08:31:20;22.97;;;8.23;;
20122;SDS011;10222;50.848;4.336;2022-11-20T08:33:46;22.93;;;9.57;;
20122;SDS011;10222;50.848;4.336;2022-11-20T08:36:13;20.43;;;8.93;;
20122;SDS011;10222;50.848;4.336;2022-11-20T08:38:39;24.40;;;8.93;;
20122;SDS011;10222;50.848;4.336;2022-11-20T08:41:06;24.03;;;8.77;;
20122;SDS011;10222;50.848;4.336;2022-11-20T08:43:55;25.43;;;9.13;;
20122;SDS011;10222;50.848;4.336;2022-11-20T08:46:23;24.03;;;8.90;;
20122;SDS011;10222;50.848;4.336;2022-11-20T08:48:50;22.47;;;8.93;;
20122;SDS011;10222;50.848;4.336;2022-11-20T08:51:17;27.13;;;10.93;;
20122;SDS011;10222;50.848;4.336;2022-11-20T08:53:43;31.03;;;9.77;;
20122;SDS011;10222;50.848;4.336;2022-11-20T08:56:09;25.93;;;9.80;;
20122;SDS011;10222;50.848;4.336;2022-11-20T08:58:37;27.10;;;9.40;;
20122;SDS011;10222;50.848;4.336;2022-11-20T09:01:03;24.87;;;9.97;;
20122;SDS011;10222;50.848;4.336;2022-11-20T09:03:29;22.63;;;9.27;;
20122;SDS011;10222;50.848;4.336;2022-11-20T09:06:02;20.83;;;8.73;;
20122;SDS011;10222;50.848;4.336;2022-11-20T09:08:29;25.77;;;8.87;;
20122;SDS011;10222;50.848;4.336;2022-11-20T09:10:55;23.83;;;7.93;;
20122;SDS011;10222;50.848;4.336;2022-11-20T09:13:22;20.80;;;8.10;;
20122;SDS011;10222;50.848;4.336;2022-11-20T09:15:55;23.03;;;9.47;;
20122;SDS011;10222;50.848;4.336;2022-11-20T09:18:22;21.27;;;8.43;;
20122;SDS011;10222;50.848;4.336;2022-11-20T09:20:48;19.00;;;8.73;;
20122;SDS011;10222;50.848;4.336;2022-11-20T09:25:44;18.57;;;8.67;;
20122;SDS011;10222;50.848;4.336;2022-11-20T09:28:10;19.90;;;8.20;;
20122;SDS011;10222;50.848;4.336;2022-11-20T09:30:37;17.33;;;7.97;;
20122;SDS011;10222;50.848;4.336;2022-11-20T09:33:05;22.30;;;8.60;;
20122;SDS011;10222;50.848;4.336;2022-11-20T09:35:32;16.50;;;7.47;;
20122;SDS011;10222;50.848;4.336;2022-11-20T09:38:04;20.70;;;8.20;;
20122;SDS011;10222;50.848;4.336;2022-11-20T09:40:30;19.00;;;6.97;;
20122;SDS011;10222;50.848;4.336;2022-11-20T09:43:03;19.67;;;7.50;;
20122;SDS011;10222;50.848;4.336;2022-11-20T09:50:49;19.00;;;8.07;;
20122;SDS011;10222;50.848;4.336;2022-11-20T09:56:04;15.67;;;7.23;;
20122;SDS011;10222;50.848;4.336;2022-11-20T09:58:35;18.93;;;6.43;;
20122;SDS011;10222;50.848;4.336;2022-11-20T10:01:46;15.00;;;6.70;;
20122;SDS011;10222;50.848;4.336;2022-11-20T10:04:04;13.23;;;6.53;;
20122;SDS011;10222;50.848;4.336;2022-11-20T10:06:33;17.47;;;6.93;;
20122;SDS011;10222;50.848;4.336;2022-11-20T10:11:41;19.53;;;6.50;;
20122;SDS011;10222;50.848;4.336;2022-11-20T10:22:12;14.90;;;4.70;;
20122;SDS011;10222;50.848;4.336;2022-11-20T10:29:47;9.47;;;4.20;;
20122;SDS011;10222;50.848;4.336;2022-11-20T10:32:19;10.43;;;3.90;;
20122;SDS011;10222;50.848;4.336;2022-11-20T10:37:31;12.90;;;3.83;;
20122;SDS011;10222;50.848;4.336;2022-11-20T10:42:43;8.30;;;3.40;;
20122;SDS011;10222;50.848;4.336;2022-11-20T10:47:47;6.27;;;2.40;;
20122;SDS011;10222;50.848;4.336;2022-11-20T10:50:14;5.53;;;2.90;;
20122;SDS011;10222;50.848;4.336;2022-11-20T10:52:45;4.33;;;2.73;;
20122;SDS011;10222;50.848;4.336;2022-11-20T11:00:35;5.70;;;2.00;;
20122;SDS011;10222;50.848;4.336;2022-11-20T11:03:02;3.93;;;2.03;;
20122;SDS011;10222;50.848;4.336;2022-11-20T11:08:00;4.77;;;2.23;;
20122;SDS011;10222;50.848;4.336;2022-11-20T11:13:07;3.57;;;1.80;;
20122;SDS011;10222;50.848;4.336;2022-11-20T11:15:45;3.27;;;1.90;;
20122;SDS011;10222;50.848;4.336;2022-11-20T11:18:22;3.07;;;1.67;;
20122;SDS011;10222;50.848;4.336;2022-11-20T11:20:51;6.07;;;1.83;;
20122;SDS011;10222;50.848;4.336;2022-11-20T11:23:56;3.33;;;1.80;;
20122;SDS011;10222;50.848;4.336;2022-11-20T11:26:20;3.33;;;1.40;;
20122;SDS011;10222;50.848;4.336;2022-11-20T11:28:57;3.10;;;1.50;;
20122;SDS011;10222;50.848;4.336;2022-11-20T11:31:25;3.27;;;1.33;;
20122;SDS011;10222;50.848;4.336;2022-11-20T11:33:52;6.60;;;2.00;;
20122;SDS011;10222;50.848;4.336;2022-11-20T11:36:20;3.87;;;1.93;;
20122;SDS011;10222;50.848;4.336;2022-11-20T11:38:48;3.00;;;1.70;;
20122;SDS011;10222;50.848;4.336;2022-11-20T11:41:17;3.53;;;1.40;;
20122;SDS011;10222;50.848;4.336;2022-11-20T11:43:57;2.13;;;1.20;;
20122;SDS011;10222;50.848;4.336;2022-11-20T11:46:44;3.60;;;1.50;;
20122;SDS011;10222;50.848;4.336;2022-11-20T11:49:18;2.67;;;1.50;;
20122;SDS011;10222;50.848;4.336;2022-11-20T11:51:56;2.63;;;1.53;;
20122;SDS011;10222;50.848;4.336;2022-11-20T11:54:30;4.77;;;1.77;;
20122;SDS011;10222;50.848;4.336;2022-11-20T11:56:58;5.27;;;1.83;;
20122;SDS011;10222;50.848;4.336;2022-11-20T11:59:29;6.70;;;2.20;;
20122;SDS011;10222;50.848;4.336;2022-11-20T12:01:59;3.40;;;1.73;;
20122;SDS011;10222;50.848;4.336;2022-11-20T12:07:03;1.97;;;1.20;;
20122;SDS011;10222;50.848;4.336;2022-11-20T12:09:36;4.00;;;1.80;;
20122;SDS011;10222;50.848;4.336;2022-11-20T12:12:12;2.80;;;1.70;;
20122;SDS011;10222;50.848;4.336;2022-11-20T12:14:42;1.60;;;1.10;;
20122;SDS011;10222;50.848;4.336;2022-11-20T12:17:10;1.83;;;1.43;;
20122;SDS011;10222;50.848;4.336;2022-11-20T12:19:38;2.40;;;1.13;;
20122;SDS011;10222;50.848;4.336;2022-11-20T12:24:38;2.50;;;1.00;;
20122;SDS011;10222;50.848;4.336;2022-11-20T12:33:10;3.27;;;1.60;;
20122;SDS011;10222;50.848;4.336;2022-11-20T12:43:26;4.10;;;1.50;;
20122;SDS011;10222;50.848;4.336;2022-11-20T12:48:55;2.73;;;1.33;;
20122;SDS011;10222;50.848;4.336;2022-11-20T13:01:53;7.47;;;2.77;;
20122;SDS011;10222;50.848;4.336;2022-11-20T13:06:58;3.17;;;1.80;;
20122;SDS011;10222;50.848;4.336;2022-11-20T13:09:25;8.20;;;1.77;;
20122;SDS011;10222;50.848;4.336;2022-11-20T13:17:06;2.17;;;1.47;;
20122;SDS011;10222;50.848;4.336;2022-11-20T13:19:35;2.40;;;1.43;;
20122;SDS011;10222;50.848;4.336;2022-11-20T13:22:01;3.30;;;1.63;;
20122;SDS011;10222;50.848;4.336;2022-11-20T13:24:30;2.93;;;1.47;;
20122;SDS011;10222;50.848;4.336;2022-11-20T13:27:03;3.07;;;1.80;;
20122;SDS011;10222;50.848;4.336;2022-11-20T13:29:31;4.43;;;1.50;;
20122;SDS011;10222;50.848;4.336;2022-11-20T13:32:02;1.53;;;1.33;;
20122;SDS011;10222;50.848;4.336;2022-11-20T13:34:31;1.57;;;1.20;;
20122;SDS011;10222;50.848;4.336;2022-11-20T13:36:59;4.73;;;2.03;;
20122;SDS011;10222;50.848;4.336;2022-11-20T13:39:26;2.73;;;1.40;;
20122;SDS011;10222;50.848;4.336;2022-11-20T13:41:58;2.97;;;0.80;;
20122;SDS011;10222;50.848;4.336;2022-11-20T13:44:28;2.13;;;1.50;;
20122;SDS011;10222;50.848;4.336;2022-11-20T13:46:56;1.53;;;1.10;;
20122;SDS011;10222;50.848;4.336;2022-11-20T13:49:27;2.73;;;1.20;;
20122;SDS011;10222;50.848;4.336;2022-11-20T13:51:59;3.90;;;1.73;;
20122;SDS011;10222;50.848;4.336;2022-11-20T14:02:36;2.23;;;1.73;;
20122;SDS011;10222;50.848;4.336;2022-11-20T14:05:02;3.33;;;1.63;;
20122;SDS011;10222;50.848;4.336;2022-11-20T14:07:37;4.47;;;1.63;;
20122;SDS011;10222;50.848;4.336;2022-11-20T14:10:04;3.53;;;1.20;;
20122;SDS011;10222;50.848;4.336;2022-11-20T14:12:31;1.87;;;0.90;;
20122;SDS011;10222;50.848;4.336;2022-11-20T14:15:00;1.70;;;0.93;;
20122;SDS011;10222;50.848;4.336;2022-11-20T14:20:11;1.87;;;1.10;;
20122;SDS011;10222;50.848;4.336;2022-11-20T14:22:38;1.40;;;1.20;;
20122;SDS011;10222;50.848;4.336;2022-11-20T14:27:43;1.93;;;1.23;;
20122;SDS011;10222;50.848;4.336;2022-11-20T14:30:16;2.23;;;1.23;;
20122;SDS011;10222;50.848;4.336;2022-11-20T14:32:43;2.50;;;1.43;;
20122;SDS011;10222;50.848;4.336;2022-11-20T14:35:18;3.60;;;1.50;;
20122;SDS011;10222;50.848;4.336;2022-11-20T14:37:47;1.27;;;0.93;;
20122;SDS011;10222;50.848;4.336;2022-11-20T14:42:51;1.50;;;1.23;;
20122;SDS011;10222;50.848;4.336;2022-11-20T14:45:17;2.30;;;1.13;;
20122;SDS011;10222;50.848;4.336;2022-11-20T14:47:45;3.23;;;1.30;;
20122;SDS011;10222;50.848;4.336;2022-11-20T14:50:21;2.93;;;1.30;;
20122;SDS011;10222;50.848;4.336;2022-11-20T14:52:53;2.40;;;1.33;;
20122;SDS011;10222;50.848;4.336;2022-11-20T14:55:37;2.00;;;1.27;;
20122;SDS011;10222;50.848;4.336;2022-11-20T14:58:23;2.43;;;1.27;;
20122;SDS011;10222;50.848;4.336;2022-11-20T15:03:31;2.63;;;1.37;;
20122;SDS011;10222;50.848;4.336;2022-11-20T15:06:00;2.87;;;1.30;;
20122;SDS011;10222;50.848;4.336;2022-11-20T15:08:27;2.27;;;1.30;;
20122;SDS011;10222;50.848;4.336;2022-11-20T15:10:54;1.20;;;0.90;;
20122;SDS011;10222;50.848;4.336;2022-11-20T15:13:31;3.80;;;1.50;;
20122;SDS011;10222;50.848;4.336;2022-11-20T15:15:59;2.17;;;1.47;;
20122;SDS011;10222;50.848;4.336;2022-11-20T15:20:52;4.87;;;1.47;;
20122;SDS011;10222;50.848;4.336;2022-11-20T15:25:50;3.13;;;1.20;;
20122;SDS011;10222;50.848;4.336;2022-11-20T15:30:47;3.43;;;1.30;;
20122;SDS011;10222;50.848;4.336;2022-11-20T15:33:13;3.50;;;1.23;;
20122;SDS011;10222;50.848;4.336;2022-11-20T15:35:41;1.67;;;1.30;;
20122;SDS011;10222;50.848;4.336;2022-11-20T15:38:08;4.03;;;1.50;;
20122;SDS011;10222;50.848;4.336;2022-11-20T15:40:34;1.23;;;0.93;;
20122;SDS011;10222;50.848;4.336;2022-11-20T15:43:00;4.23;;;1.80;;
20122;SDS011;10222;50.848;4.336;2022-11-20T15:45:54;1.50;;;1.27;;
20122;SDS011;10222;50.848;4.336;2022-11-20T15:48:26;2.20;;;1.20;;
20122;SDS011;10222;50.848;4.336;2022-11-20T15:53:22;3.80;;;1.57;;
20122;SDS011;10222;50.848;4.336;2022-11-20T15:55:49;2.60;;;1.27;;
20122;SDS011;10222;50.848;4.336;2022-11-20T15:58:21;4.40;;;1.30;;
20122;SDS011;10222;50.848;4.336;2022-11-20T16:00:51;4.90;;;1.60;;
20122;SDS011;10222;50.848;4.336;2022-11-20T16:03:18;2.03;;;1.40;;
20122;SDS011;10222;50.848;4.336;2022-11-20T16:05:44;6.20;;;1.93;;
20122;SDS011;10222;50.848;4.336;2022-11-20T16:08:12;7.10;;;1.77;;
20122;SDS011;10222;50.848;4.336;2022-11-20T16:10:38;4.93;;;2.20;;
20122;SDS011;10222;50.848;4.336;2022-11-20T16:13:05;6.73;;;1.87;;
20122;SDS011;10222;50.848;4.336;2022-11-20T16:15:56;3.57;;;1.47;;
20122;SDS011;10222;50.848;4.336;2022-11-20T16:18:24;3.13;;;1.70;;
20122;SDS011;10222;50.848;4.336;2022-11-20T16:20:54;3.27;;;1.90;;
20122;SDS011;10222;50.848;4.336;2022-11-20T16:23:21;2.83;;;1.50;;
20122;SDS011;10222;50.848;4.336;2022-11-20T16:25:48;4.17;;;1.40;;
20122;SDS011;10222;50.848;4.336;2022-11-20T16:28:20;2.70;;;1.23;;
20122;SDS011;10222;50.848;4.336;2022-11-20T16:30:48;7.77;;;1.93;;
20122;SDS011;10222;50.848;4.336;2022-11-20T16:33:15;4.23;;;1.77;;
20122;SDS011;10222;50.848;4.336;2022-11-20T16:35:42;2.63;;;1.53;;
20122;SDS011;10222;50.848;4.336;2022-11-20T16:38:08;3.73;;;1.43;;